Terminal Aerodrome Forecast
Issued by NWS Wakefield, VA

Home | Current Version | Previous Version | Text Only | Print | Product List | Glossary On
Versions: 1 2 3 4 5 6 7 8 9 10 11 12 13 14 15 16 17 18 19 20 21 22 23 24 25 26 27 28 29
808
FTUS41 KAKQ 301134
TAFORF
TAF
KORF 301134Z 3012/0112 05008KT P6SM OVC008
     FM301900 06011KT P6SM SCT009 OVC015
     FM302200 07008KT P6SM OVC025
     FM010800 13008KT P6SM OVC015=

USA.gov is the U.S. government's official web portal to all federal, state and local government web resources and services.